sensor_id;sensor_type;location;lat;lon;timestamp;P1;durP1;ratioP1;P2;durP2;ratioP2
26113;SDS011;13966;48.828;9.064;2022-09-13T00:02:18;4.55;;;2.58;;
26113;SDS011;13966;48.828;9.064;2022-09-13T00:04:43;7.00;;;2.38;;
26113;SDS011;13966;48.828;9.064;2022-09-13T00:07:09;3.35;;;2.47;;
26113;SDS011;13966;48.828;9.064;2022-09-13T00:09:35;4.07;;;2.40;;
26113;SDS011;13966;48.828;9.064;2022-09-13T00:12:02;5.43;;;2.50;;
26113;SDS011;13966;48.828;9.064;2022-09-13T00:14:28;2.75;;;2.17;;
26113;SDS011;13966;48.828;9.064;2022-09-13T00:16:54;4.45;;;2.30;;
26113;SDS011;13966;48.828;9.064;2022-09-13T00:19:20;5.78;;;2.15;;
26113;SDS011;13966;48.828;9.064;2022-09-13T00:21:46;5.72;;;2.30;;
26113;SDS011;13966;48.828;9.064;2022-09-13T00:24:12;5.30;;;2.38;;
26113;SDS011;13966;48.828;9.064;2022-09-13T00:26:38;7.20;;;2.50;;
26113;SDS011;13966;48.828;9.064;2022-09-13T00:29:04;3.50;;;2.40;;
26113;SDS011;13966;48.828;9.064;2022-09-13T00:31:30;3.25;;;2.33;;
26113;SDS011;13966;48.828;9.064;2022-09-13T00:33:59;3.45;;;2.00;;
26113;SDS011;13966;48.828;9.064;2022-09-13T00:36:26;4.07;;;2.53;;
26113;SDS011;13966;48.828;9.064;2022-09-13T00:38:52;5.28;;;2.47;;
26113;SDS011;13966;48.828;9.064;2022-09-13T00:41:19;4.82;;;2.30;;
26113;SDS011;13966;48.828;9.064;2022-09-13T00:43:49;3.33;;;2.35;;
26113;SDS011;13966;48.828;9.064;2022-09-13T00:46:36;5.68;;;2.75;;
26113;SDS011;13966;48.828;9.064;2022-09-13T00:49:10;4.75;;;2.60;;
26113;SDS011;13966;48.828;9.064;2022-09-13T00:51:37;5.95;;;2.40;;
26113;SDS011;13966;48.828;9.064;2022-09-13T00:54:04;3.90;;;2.25;;
26113;SDS011;13966;48.828;9.064;2022-09-13T00:56:32;5.53;;;2.50;;
26113;SDS011;13966;48.828;9.064;2022-09-13T00:59:00;5.72;;;2.85;;
26113;SDS011;13966;48.828;9.064;2022-09-13T01:01:32;4.80;;;3.00;;
26113;SDS011;13966;48.828;9.064;2022-09-13T01:04:00;5.10;;;2.50;;
26113;SDS011;13966;48.828;9.064;2022-09-13T01:06:26;3.72;;;2.55;;
26113;SDS011;13966;48.828;9.064;2022-09-13T01:08:53;3.58;;;2.10;;
26113;SDS011;13966;48.828;9.064;2022-09-13T01:11:29;2.78;;;2.30;;
26113;SDS011;13966;48.828;9.064;2022-09-13T01:13:56;4.43;;;2.85;;
26113;SDS011;13966;48.828;9.064;2022-09-13T01:16:23;3.88;;;2.60;;
26113;SDS011;13966;48.828;9.064;2022-09-13T01:18:49;4.38;;;2.50;;
26113;SDS011;13966;48.828;9.064;2022-09-13T01:31:37;4.13;;;2.50;;
26113;SDS011;13966;48.828;9.064;2022-09-13T01:34:22;2.35;;;2.15;;
26113;SDS011;13966;48.828;9.064;2022-09-13T01:39:52;3.10;;;2.40;;
26113;SDS011;13966;48.828;9.064;2022-09-13T01:42:27;4.47;;;2.50;;
26113;SDS011;13966;48.828;9.064;2022-09-13T01:49:58;3.45;;;2.42;;
26113;SDS011;13966;48.828;9.064;2022-09-13T01:58:01;4.32;;;2.45;;
26113;SDS011;13966;48.828;9.064;2022-09-13T02:00:28;3.15;;;2.35;;
26113;SDS011;13966;48.828;9.064;2022-09-13T02:05:28;3.63;;;2.30;;
26113;SDS011;13966;48.828;9.064;2022-09-13T02:08:07;5.07;;;2.55;;
26113;SDS011;13966;48.828;9.064;2022-09-13T02:10:36;3.90;;;2.45;;
26113;SDS011;13966;48.828;9.064;2022-09-13T02:13:04;3.90;;;2.25;;
26113;SDS011;13966;48.828;9.064;2022-09-13T02:15:33;4.22;;;2.40;;
26113;SDS011;13966;48.828;9.064;2022-09-13T02:18:08;5.70;;;2.30;;
26113;SDS011;13966;48.828;9.064;2022-09-13T02:20:36;5.03;;;2.13;;
26113;SDS011;13966;48.828;9.064;2022-09-13T02:23:06;3.88;;;2.15;;
26113;SDS011;13966;48.828;9.064;2022-09-13T02:25:34;2.75;;;2.20;;
26113;SDS011;13966;48.828;9.064;2022-09-13T02:28:02;4.35;;;2.20;;
26113;SDS011;13966;48.828;9.064;2022-09-13T02:30:31;4.80;;;2.30;;
26113;SDS011;13966;48.828;9.064;2022-09-13T02:36:07;3.13;;;1.92;;
26113;SDS011;13966;48.828;9.064;2022-09-13T02:38:49;3.63;;;2.40;;
26113;SDS011;13966;48.828;9.064;2022-09-13T02:41:18;2.75;;;2.15;;
26113;SDS011;13966;48.828;9.064;2022-09-13T02:49:01;5.75;;;2.53;;
26113;SDS011;13966;48.828;9.064;2022-09-13T02:51:34;4.55;;;2.40;;
26113;SDS011;13966;48.828;9.064;2022-09-13T02:54:08;3.33;;;2.00;;
26113;SDS011;13966;48.828;9.064;2022-09-13T02:59:16;3.47;;;2.28;;
26113;SDS011;13966;48.828;9.064;2022-09-13T03:01:46;2.85;;;2.20;;
26113;SDS011;13966;48.828;9.064;2022-09-13T03:04:14;3.35;;;2.30;;
26113;SDS011;13966;48.828;9.064;2022-09-13T03:06:40;4.40;;;2.20;;
26113;SDS011;13966;48.828;9.064;2022-09-13T03:09:06;3.33;;;2.53;;
26113;SDS011;13966;48.828;9.064;2022-09-13T03:14:06;3.30;;;2.40;;
26113;SDS011;13966;48.828;9.064;2022-09-13T03:27:36;3.72;;;2.35;;
26113;SDS011;13966;48.828;9.064;2022-09-13T03:30:10;3.47;;;2.60;;
26113;SDS011;13966;48.828;9.064;2022-09-13T03:40:12;4.35;;;2.80;;
26113;SDS011;13966;48.828;9.064;2022-09-13T03:42:46;3.28;;;2.53;;
26113;SDS011;13966;48.828;9.064;2022-09-13T03:45:13;3.47;;;2.47;;
26113;SDS011;13966;48.828;9.064;2022-09-13T03:47:41;4.72;;;2.70;;
26113;SDS011;13966;48.828;9.064;2022-09-13T03:50:12;3.80;;;2.50;;
26113;SDS011;13966;48.828;9.064;2022-09-13T03:52:39;5.25;;;2.95;;
26113;SDS011;13966;48.828;9.064;2022-09-13T03:55:05;3.60;;;2.85;;
26113;SDS011;13966;48.828;9.064;2022-09-13T03:57:31;6.28;;;3.13;;
26113;SDS011;13966;48.828;9.064;2022-09-13T03:59:57;8.65;;;3.10;;
26113;SDS011;13966;48.828;9.064;2022-09-13T04:02:25;4.45;;;2.90;;
26113;SDS011;13966;48.828;9.064;2022-09-13T04:04:51;4.05;;;2.60;;
26113;SDS011;13966;48.828;9.064;2022-09-13T04:07:18;3.47;;;2.78;;
26113;SDS011;13966;48.828;9.064;2022-09-13T04:09:45;4.30;;;2.70;;
26113;SDS011;13966;48.828;9.064;2022-09-13T04:12:12;4.38;;;2.95;;
26113;SDS011;13966;48.828;9.064;2022-09-13T04:14:38;6.63;;;3.00;;
26113;SDS011;13966;48.828;9.064;2022-09-13T04:17:05;6.18;;;3.90;;
26113;SDS011;13966;48.828;9.064;2022-09-13T04:19:31;14.50;;;3.60;;
26113;SDS011;13966;48.828;9.064;2022-09-13T04:21:57;16.63;;;4.90;;
26113;SDS011;13966;48.828;9.064;2022-09-13T04:24:25;15.88;;;4.88;;
26113;SDS011;13966;48.828;9.064;2022-09-13T04:26:51;9.65;;;3.75;;
26113;SDS011;13966;48.828;9.064;2022-09-13T04:29:18;4.82;;;2.97;;
26113;SDS011;13966;48.828;9.064;2022-09-13T04:31:45;6.72;;;2.90;;
26113;SDS011;13966;48.828;9.064;2022-09-13T04:34:11;10.93;;;3.67;;
26113;SDS011;13966;48.828;9.064;2022-09-13T04:36:38;13.20;;;4.05;;
26113;SDS011;13966;48.828;9.064;2022-09-13T04:39:04;19.50;;;6.07;;
26113;SDS011;13966;48.828;9.064;2022-09-13T04:41:30;21.08;;;6.07;;
26113;SDS011;13966;48.828;9.064;2022-09-13T04:44:00;12.27;;;4.75;;
26113;SDS011;13966;48.828;9.064;2022-09-13T04:46:26;12.75;;;3.58;;
26113;SDS011;13966;48.828;9.064;2022-09-13T04:48:53;6.80;;;3.10;;
26113;SDS011;13966;48.828;9.064;2022-09-13T04:51:19;7.15;;;3.85;;
26113;SDS011;13966;48.828;9.064;2022-09-13T04:53:52;9.60;;;3.42;;
26113;SDS011;13966;48.828;9.064;2022-09-13T04:56:19;6.88;;;3.38;;
26113;SDS011;13966;48.828;9.064;2022-09-13T04:58:45;10.13;;;3.53;;
26113;SDS011;13966;48.828;9.064;2022-09-13T05:01:11;9.57;;;3.85;;
26113;SDS011;13966;48.828;9.064;2022-09-13T05:03:37;7.68;;;3.78;;
26113;SDS011;13966;48.828;9.064;2022-09-13T05:06:04;10.75;;;3.70;;
26113;SDS011;13966;48.828;9.064;2022-09-13T05:08:30;9.68;;;3.58;;
26113;SDS011;13966;48.828;9.064;2022-09-13T05:10:57;8.63;;;4.00;;
26113;SDS011;13966;48.828;9.064;2022-09-13T05:13:23;10.10;;;3.97;;
26113;SDS011;13966;48.828;9.064;2022-09-13T05:15:49;6.32;;;3.03;;
26113;SDS011;13966;48.828;9.064;2022-09-13T05:18:15;14.63;;;3.58;;
26113;SDS011;13966;48.828;9.064;2022-09-13T05:20:41;5.57;;;3.70;;
26113;SDS011;13966;48.828;9.064;2022-09-13T05:23:07;7.65;;;3.90;;
26113;SDS011;13966;48.828;9.064;2022-09-13T05:25:33;10.77;;;3.53;;
26113;SDS011;13966;48.828;9.064;2022-09-13T05:27:59;8.38;;;4.35;;
26113;SDS011;13966;48.828;9.064;2022-09-13T05:30:26;10.98;;;3.67;;
26113;SDS011;13966;48.828;9.064;2022-09-13T05:32:52;7.22;;;3.55;;
26113;SDS011;13966;48.828;9.064;2022-09-13T05:35:18;7.13;;;3.30;;
26113;SDS011;13966;48.828;9.064;2022-09-13T05:37:44;9.20;;;3.63;;
26113;SDS011;13966;48.828;9.064;2022-09-13T05:40:10;7.05;;;3.40;;
26113;SDS011;13966;48.828;9.064;2022-09-13T05:42:36;4.55;;;3.40;;
26113;SDS011;13966;48.828;9.064;2022-09-13T05:45:02;6.28;;;3.58;;
26113;SDS011;13966;48.828;9.064;2022-09-13T05:47:30;5.95;;;3.13;;
26113;SDS011;13966;48.828;9.064;2022-09-13T05:49:56;7.80;;;3.90;;
26113;SDS011;13966;48.828;9.064;2022-09-13T05:52:22;8.88;;;4.20;;
26113;SDS011;13966;48.828;9.064;2022-09-13T05:54:49;6.38;;;3.85;;
26113;SDS011;13966;48.828;9.064;2022-09-13T05:57:15;10.05;;;3.88;;
26113;SDS011;13966;48.828;9.064;2022-09-13T05:59:41;19.75;;;4.80;;
26113;SDS011;13966;48.828;9.064;2022-09-13T06:02:08;9.88;;;4.45;;
26113;SDS011;13966;48.828;9.064;2022-09-13T06:04:34;7.60;;;3.67;;
26113;SDS011;13966;48.828;9.064;2022-09-13T06:07:00;10.20;;;3.50;;
26113;SDS011;13966;48.828;9.064;2022-09-13T06:09:26;10.60;;;4.03;;
26113;SDS011;13966;48.828;9.064;2022-09-13T06:11:52;9.07;;;4.30;;
26113;SDS011;13966;48.828;9.064;2022-09-13T06:14:18;9.90;;;3.60;;
26113;SDS011;13966;48.828;9.064;2022-09-13T06:16:44;12.25;;;4.05;;
26113;SDS011;13966;48.828;9.064;2022-09-13T06:19:10;7.22;;;3.67;;
26113;SDS011;13966;48.828;9.064;2022-09-13T06:21:36;6.90;;;3.25;;
26113;SDS011;13966;48.828;9.064;2022-09-13T06:24:02;10.27;;;3.88;;
26113;SDS011;13966;48.828;9.064;2022-09-13T06:26:29;9.63;;;3.72;;
26113;SDS011;13966;48.828;9.064;2022-09-13T06:28:56;6.82;;;3.53;;
26113;SDS011;13966;48.828;9.064;2022-09-13T06:31:22;6.88;;;3.30;;
26113;SDS011;13966;48.828;9.064;2022-09-13T06:33:53;7.13;;;3.50;;
26113;SDS011;13966;48.828;9.064;2022-09-13T06:36:21;6.63;;;3.38;;
26113;SDS011;13966;48.828;9.064;2022-09-13T06:38:47;6.57;;;4.00;;
26113;SDS011;13966;48.828;9.064;2022-09-13T06:41:14;6.80;;;3.60;;
26113;SDS011;13966;48.828;9.064;2022-09-13T06:43:42;7.97;;;3.40;;
26113;SDS011;13966;48.828;9.064;2022-09-13T06:46:12;10.48;;;3.78;;
26113;SDS011;13966;48.828;9.064;2022-09-13T06:48:39;8.95;;;4.07;;
26113;SDS011;13966;48.828;9.064;2022-09-13T06:51:07;7.45;;;3.42;;
26113;SDS011;13966;48.828;9.064;2022-09-13T06:53:34;8.45;;;3.05;;
26113;SDS011;13966;48.828;9.064;2022-09-13T06:56:01;7.03;;;3.20;;
26113;SDS011;13966;48.828;9.064;2022-09-13T06:58:30;5.78;;;3.30;;
26113;SDS011;13966;48.828;9.064;2022-09-13T07:03:36;10.40;;;4.00;;
26113;SDS011;13966;48.828;9.064;2022-09-13T07:06:06;7.15;;;3.38;;
26113;SDS011;13966;48.828;9.064;2022-09-13T07:08:32;11.00;;;4.05;;
26113;SDS011;13966;48.828;9.064;2022-09-13T07:10:58;11.75;;;4.60;;
26113;SDS011;13966;48.828;9.064;2022-09-13T07:13:24;7.55;;;3.60;;
26113;SDS011;13966;48.828;9.064;2022-09-13T07:15:50;9.73;;;3.72;;
26113;SDS011;13966;48.828;9.064;2022-09-13T07:18:16;11.15;;;3.50;;
26113;SDS011;13966;48.828;9.064;2022-09-13T07:20:42;6.10;;;3.22;;
26113;SDS011;13966;48.828;9.064;2022-09-13T07:23:08;6.35;;;3.35;;
26113;SDS011;13966;48.828;9.064;2022-09-13T07:25:34;8.00;;;3.95;;
26113;SDS011;13966;48.828;9.064;2022-09-13T07:28:00;7.10;;;3.70;;
26113;SDS011;13966;48.828;9.064;2022-09-13T07:30:26;4.90;;;3.10;;
26113;SDS011;13966;48.828;9.064;2022-09-13T07:32:52;6.38;;;3.50;;
26113;SDS011;13966;48.828;9.064;2022-09-13T07:35:18;10.38;;;3.28;;
26113;SDS011;13966;48.828;9.064;2022-09-13T07:37:45;8.73;;;2.95;;
26113;SDS011;13966;48.828;9.064;2022-09-13T07:40:11;4.65;;;2.90;;
26113;SDS011;13966;48.828;9.064;2022-09-13T07:42:37;7.65;;;2.70;;
26113;SDS011;13966;48.828;9.064;2022-09-13T07:45:04;4.53;;;2.50;;
26113;SDS011;13966;48.828;9.064;2022-09-13T07:47:33;5.93;;;2.60;;
26113;SDS011;13966;48.828;9.064;2022-09-13T07:49:59;4.47;;;2.50;;
26113;SDS011;13966;48.828;9.064;2022-09-13T07:52:27;7.35;;;2.78;;
26113;SDS011;13966;48.828;9.064;2022-09-13T07:54:53;6.65;;;2.65;;
26113;SDS011;13966;48.828;9.064;2022-09-13T07:57:20;7.10;;;2.42;;
26113;SDS011;13966;48.828;9.064;2022-09-13T07:59:46;8.27;;;3.13;;
26113;SDS011;13966;48.828;9.064;2022-09-13T08:02:12;4.57;;;2.35;;
26113;SDS011;13966;48.828;9.064;2022-09-13T08:04:39;6.43;;;2.40;;
26113;SDS011;13966;48.828;9.064;2022-09-13T08:07:05;5.30;;;2.08;;
26113;SDS011;13966;48.828;9.064;2022-09-13T08:09:31;5.65;;;2.10;;
26113;SDS011;13966;48.828;9.064;2022-09-13T08:11:57;4.90;;;2.00;;
26113;SDS011;13966;48.828;9.064;2022-09-13T08:14:23;5.25;;;1.95;;
26113;SDS011;13966;48.828;9.064;2022-09-13T08:16:50;3.95;;;2.28;;
26113;SDS011;13966;48.828;9.064;2022-09-13T08:19:19;3.45;;;1.77;;
26113;SDS011;13966;48.828;9.064;2022-09-13T08:21:45;3.00;;;1.50;;
26113;SDS011;13966;48.828;9.064;2022-09-13T08:24:16;7.50;;;2.10;;
26113;SDS011;13966;48.828;9.064;2022-09-13T08:26:42;3.80;;;2.08;;
26113;SDS011;13966;48.828;9.064;2022-09-13T08:29:09;7.38;;;2.10;;
26113;SDS011;13966;48.828;9.064;2022-09-13T08:31:35;4.47;;;1.67;;
26113;SDS011;13966;48.828;9.064;2022-09-13T08:34:02;6.18;;;1.70;;
26113;SDS011;13966;48.828;9.064;2022-09-13T08:36:28;3.67;;;1.80;;
26113;SDS011;13966;48.828;9.064;2022-09-13T08:38:58;2.58;;;1.80;;
26113;SDS011;13966;48.828;9.064;2022-09-13T08:46:47;8.68;;;2.10;;
26113;SDS011;13966;48.828;9.064;2022-09-13T08:49:16;3.28;;;1.88;;
26113;SDS011;13966;48.828;9.064;2022-09-13T08:51:47;3.37;;;2.00;;
26113;SDS011;13966;48.828;9.064;2022-09-13T08:54:15;7.97;;;2.00;;
26113;SDS011;13966;48.828;9.064;2022-09-13T08:57:00;4.18;;;1.67;;
26113;SDS011;13966;48.828;9.064;2022-09-13T09:04:47;6.57;;;1.80;;
26113;SDS011;13966;48.828;9.064;2022-09-13T09:07:16;2.80;;;1.65;;
26113;SDS011;13966;48.828;9.064;2022-09-13T09:09:46;4.03;;;1.35;;
26113;SDS011;13966;48.828;9.064;2022-09-13T09:12:16;4.35;;;1.83;;
26113;SDS011;13966;48.828;9.064;2022-09-13T09:17:17;2.85;;;1.35;;
26113;SDS011;13966;48.828;9.064;2022-09-13T09:19:45;3.10;;;1.40;;
26113;SDS011;13966;48.828;9.064;2022-09-13T09:22:17;6.30;;;1.50;;
26113;SDS011;13966;48.828;9.064;2022-09-13T09:24:46;2.60;;;1.70;;
26113;SDS011;13966;48.828;9.064;2022-09-13T09:27:14;4.22;;;1.30;;
26113;SDS011;13966;48.828;9.064;2022-09-13T09:29:41;7.78;;;1.58;;
26113;SDS011;13966;48.828;9.064;2022-09-13T09:35:08;8.77;;;1.67;;
26113;SDS011;13966;48.828;9.064;2022-09-13T09:37:36;4.65;;;1.73;;
26113;SDS011;13966;48.828;9.064;2022-09-13T09:40:04;4.00;;;1.40;;
26113;SDS011;13966;48.828;9.064;2022-09-13T09:42:46;2.60;;;1.52;;
26113;SDS011;13966;48.828;9.064;2022-09-13T09:45:32;3.88;;;1.40;;
26113;SDS011;13966;48.828;9.064;2022-09-13T09:48:00;4.47;;;1.42;;
26113;SDS011;13966;48.828;9.064;2022-09-13T09:50:30;5.57;;;1.40;;
26113;SDS011;13966;48.828;9.064;2022-09-13T09:52:58;6.07;;;1.55;;
26113;SDS011;13966;48.828;9.064;2022-09-13T09:55:42;5.20;;;1.55;;
26113;SDS011;13966;48.828;9.064;2022-09-13T09:58:10;5.88;;;1.90;;
26113;SDS011;13966;48.828;9.064;2022-09-13T10:00:53;4.57;;;1.75;;
26113;SDS011;13966;48.828;9.064;2022-09-13T10:03:23;4.68;;;1.88;;
26113;SDS011;13966;48.828;9.064;2022-09-13T10:05:49;7.97;;;2.15;;
26113;SDS011;13966;48.828;9.064;2022-09-13T10:08:25;9.52;;;2.03;;
26113;SDS011;13966;48.828;9.064;2022-09-13T10:10:54;5.30;;;1.80;;
26113;SDS011;13966;48.828;9.064;2022-09-13T10:13:21;4.43;;;2.03;;
26113;SDS011;13966;48.828;9.064;2022-09-13T10:15:59;5.72;;;2.13;;
26113;SDS011;13966;48.828;9.064;2022-09-13T10:18:26;7.32;;;1.88;;
26113;SDS011;13966;48.828;9.064;2022-09-13T10:20:59;3.03;;;1.73;;
26113;SDS011;13966;48.828;9.064;2022-09-13T10:23:26;2.97;;;1.45;;
26113;SDS011;13966;48.828;9.064;2022-09-13T10:26:03;2.67;;;1.35;;
26113;SDS011;13966;48.828;9.064;2022-09-13T10:28:53;4.32;;;1.70;;
26113;SDS011;13966;48.828;9.064;2022-09-13T10:31:20;3.20;;;1.52;;
26113;SDS011;13966;48.828;9.064;2022-09-13T10:33:55;2.80;;;1.30;;
26113;SDS011;13966;48.828;9.064;2022-09-13T10:36:27;2.25;;;1.60;;
26113;SDS011;13966;48.828;9.064;2022-09-13T10:41:27;2.17;;;1.48;;
26113;SDS011;13966;48.828;9.064;2022-09-13T10:43:57;5.07;;;1.73;;
26113;SDS011;13966;48.828;9.064;2022-09-13T10:46:24;4.75;;;1.55;;
26113;SDS011;13966;48.828;9.064;2022-09-13T10:48:51;3.30;;;1.42;;
26113;SDS011;13966;48.828;9.064;2022-09-13T10:51:30;4.65;;;1.75;;
26113;SDS011;13966;48.828;9.064;2022-09-13T10:56:31;6.15;;;1.50;;
26113;SDS011;13966;48.828;9.064;2022-09-13T11:09:09;4.25;;;1.40;;
26113;SDS011;13966;48.828;9.064;2022-09-13T11:14:34;2.85;;;1.10;;
26113;SDS011;13966;48.828;9.064;2022-09-13T11:16:59;4.95;;;1.30;;
26113;SDS011;13966;48.828;9.064;2022-09-13T11:22:04;3.13;;;1.30;;
26113;SDS011;13966;48.828;9.064;2022-09-13T11:27:34;4.43;;;1.08;;
26113;SDS011;13966;48.828;9.064;2022-09-13T11:45:20;2.72;;;1.00;;
26113;SDS011;13966;48.828;9.064;2022-09-13T11:55:34;1.75;;;0.80;;
26113;SDS011;13966;48.828;9.064;2022-09-13T11:58:09;1.98;;;0.70;;
26113;SDS011;13966;48.828;9.064;2022-09-13T12:00:38;2.80;;;0.90;;
26113;SDS011;13966;48.828;9.064;2022-09-13T12:05:38;1.23;;;0.65;;
26113;SDS011;13966;48.828;9.064;2022-09-13T12:10:51;1.35;;;0.50;;
26113;SDS011;13966;48.828;9.064;2022-09-13T12:13:33;3.75;;;0.90;;
26113;SDS011;13966;48.828;9.064;2022-09-13T12:16:05;1.58;;;0.75;;
26113;SDS011;13966;48.828;9.064;2022-09-13T12:18:33;2.15;;;0.60;;
26113;SDS011;13966;48.828;9.064;2022-09-13T12:21:05;5.03;;;0.70;;
26113;SDS011;13966;48.828;9.064;2022-09-13T12:23:42;2.72;;;0.50;;
26113;SDS011;13966;48.828;9.064;2022-09-13T12:26:18;2.17;;;0.53;;
26113;SDS011;13966;48.828;9.064;2022-09-13T12:28:47;2.28;;;0.70;;
26113;SDS011;13966;48.828;9.064;2022-09-13T12:31:21;1.25;;;0.70;;
26113;SDS011;13966;48.828;9.064;2022-09-13T12:33:47;3.08;;;1.10;;
26113;SDS011;13966;48.828;9.064;2022-09-13T12:49:25;1.08;;;0.60;;
26113;SDS011;13966;48.828;9.064;2022-09-13T12:57:24;17.25;;;2.47;;
26113;SDS011;13966;48.828;9.064;2022-09-13T12:59:55;8.25;;;1.55;;
26113;SDS011;13966;48.828;9.064;2022-09-13T13:02:32;28.10;;;3.97;;
26113;SDS011;13966;48.828;9.064;2022-09-13T13:05:02;35.15;;;4.85;;
26113;SDS011;13966;48.828;9.064;2022-09-13T13:07:28;10.52;;;2.00;;
26113;SDS011;13966;48.828;9.064;2022-09-13T13:09:56;3.65;;;0.80;;
26113;SDS011;13966;48.828;9.064;2022-09-13T13:12:32;3.00;;;0.73;;
26113;SDS011;13966;48.828;9.064;2022-09-13T13:15:00;3.95;;;0.52;;
26113;SDS011;13966;48.828;9.064;2022-09-13T13:17:43;1.10;;;0.40;;
26113;SDS011;13966;48.828;9.064;2022-09-13T13:23:01;1.40;;;0.70;;
26113;SDS011;13966;48.828;9.064;2022-09-13T13:25:29;1.33;;;0.60;;
26113;SDS011;13966;48.828;9.064;2022-09-13T13:27:56;3.28;;;0.73;;
26113;SDS011;13966;48.828;9.064;2022-09-13T13:30:56;2.17;;;0.68;;
26113;SDS011;13966;48.828;9.064;2022-09-13T13:33:16;4.50;;;0.85;;
26113;SDS011;13966;48.828;9.064;2022-09-13T13:35:43;1.77;;;0.60;;
26113;SDS011;13966;48.828;9.064;2022-09-13T13:40:41;1.02;;;0.75;;
26113;SDS011;13966;48.828;9.064;2022-09-13T13:43:15;4.65;;;0.45;;
26113;SDS011;13966;48.828;9.064;2022-09-13T13:45:55;1.45;;;0.55;;
26113;SDS011;13966;48.828;9.064;2022-09-13T13:48:40;2.15;;;0.50;;
26113;SDS011;13966;48.828;9.064;2022-09-13T13:53:36;2.00;;;0.40;;
26113;SDS011;13966;48.828;9.064;2022-09-13T13:58:45;3.25;;;0.57;;
26113;SDS011;13966;48.828;9.064;2022-09-13T14:01:31;1.50;;;0.60;;
26113;SDS011;13966;48.828;9.064;2022-09-13T14:04:22;0.85;;;0.50;;
26113;SDS011;13966;48.828;9.064;2022-09-13T14:15:02;1.02;;;0.60;;
26113;SDS011;13966;48.828;9.064;2022-09-13T14:20:04;0.65;;;0.60;;
26113;SDS011;13966;48.828;9.064;2022-09-13T14:22:34;0.93;;;0.70;;
26113;SDS011;13966;48.828;9.064;2022-09-13T14:27:38;1.02;;;0.52;;
26113;SDS011;13966;48.828;9.064;2022-09-13T14:30:24;1.13;;;0.60;;
26113;SDS011;13966;48.828;9.064;2022-09-13T14:32:53;4.10;;;0.90;;
26113;SDS011;13966;48.828;9.064;2022-09-13T14:35:23;2.55;;;0.60;;
26113;SDS011;13966;48.828;9.064;2022-09-13T14:37:49;1.77;;;0.70;;
26113;SDS011;13966;48.828;9.064;2022-09-13T14:42:43;4.00;;;0.65;;
26113;SDS011;13966;48.828;9.064;2022-09-13T14:45:16;1.15;;;0.65;;
26113;SDS011;13966;48.828;9.064;2022-09-13T14:47:54;2.03;;;0.77;;
26113;SDS011;13966;48.828;9.064;2022-09-13T14:50:31;2.95;;;0.82;;
26113;SDS011;13966;48.828;9.064;2022-09-13T14:53:02;1.92;;;0.70;;
26113;SDS011;13966;48.828;9.064;2022-09-13T14:55:35;8.88;;;0.98;;
26113;SDS011;13966;48.828;9.064;2022-09-13T14:58:03;4.43;;;0.73;;
26113;SDS011;13966;48.828;9.064;2022-09-13T15:00:31;1.40;;;0.80;;
26113;SDS011;13966;48.828;9.064;2022-09-13T15:02:59;2.40;;;0.70;;
26113;SDS011;13966;48.828;9.064;2022-09-13T15:05:26;1.60;;;0.70;;
26113;SDS011;13966;48.828;9.064;2022-09-13T15:07:54;1.88;;;0.70;;
26113;SDS011;13966;48.828;9.064;2022-09-13T15:10:21;3.72;;;0.95;;
26113;SDS011;13966;48.828;9.064;2022-09-13T15:12:49;2.22;;;0.70;;
26113;SDS011;13966;48.828;9.064;2022-09-13T15:17:55;2.10;;;0.80;;
26113;SDS011;13966;48.828;9.064;2022-09-13T15:20:22;1.40;;;0.85;;
26113;SDS011;13966;48.828;9.064;2022-09-13T15:22:48;3.65;;;0.88;;
26113;SDS011;13966;48.828;9.064;2022-09-13T15:25:17;2.75;;;0.90;;
26113;SDS011;13966;48.828;9.064;2022-09-13T15:27:44;1.27;;;0.50;;
26113;SDS011;13966;48.828;9.064;2022-09-13T15:30:18;1.52;;;0.65;;
26113;SDS011;13966;48.828;9.064;2022-09-13T15:32:45;1.58;;;0.85;;
26113;SDS011;13966;48.828;9.064;2022-09-13T15:35:21;3.25;;;0.90;;
26113;SDS011;13966;48.828;9.064;2022-09-13T15:37:56;1.23;;;0.65;;
26113;SDS011;13966;48.828;9.064;2022-09-13T15:40:23;3.38;;;0.70;;
26113;SDS011;13966;48.828;9.064;2022-09-13T15:42:51;5.00;;;0.75;;
26113;SDS011;13966;48.828;9.064;2022-09-13T15:45:18;3.55;;;0.90;;
26113;SDS011;13966;48.828;9.064;2022-09-13T15:47:48;0.90;;;0.55;;
26113;SDS011;13966;48.828;9.064;2022-09-13T15:50:18;3.83;;;0.60;;
26113;SDS011;13966;48.828;9.064;2022-09-13T15:52:44;2.58;;;0.70;;
26113;SDS011;13966;48.828;9.064;2022-09-13T15:55:10;3.78;;;0.80;;
26113;SDS011;13966;48.828;9.064;2022-09-13T15:57:36;1.35;;;0.85;;
26113;SDS011;13966;48.828;9.064;2022-09-13T16:00:03;3.40;;;0.77;;
26113;SDS011;13966;48.828;9.064;2022-09-13T16:02:30;3.33;;;0.82;;
26113;SDS011;13966;48.828;9.064;2022-09-13T16:04:57;1.55;;;0.70;;
26113;SDS011;13966;48.828;9.064;2022-09-13T16:07:23;3.80;;;0.80;;
26113;SDS011;13966;48.828;9.064;2022-09-13T16:09:50;1.83;;;0.90;;
26113;SDS011;13966;48.828;9.064;2022-09-13T16:12:16;2.42;;;1.70;;
26113;SDS011;13966;48.828;9.064;2022-09-13T16:14:43;2.42;;;1.00;;
26113;SDS011;13966;48.828;9.064;2022-09-13T16:17:15;4.18;;;1.58;;
26113;SDS011;13966;48.828;9.064;2022-09-13T16:19:44;2.90;;;1.10;;
26113;SDS011;13966;48.828;9.064;2022-09-13T16:22:10;1.95;;;0.90;;
26113;SDS011;13966;48.828;9.064;2022-09-13T16:24:36;0.80;;;0.65;;
26113;SDS011;13966;48.828;9.064;2022-09-13T16:27:02;3.60;;;0.70;;
26113;SDS011;13966;48.828;9.064;2022-09-13T16:29:28;1.10;;;0.73;;
26113;SDS011;13966;48.828;9.064;2022-09-13T16:31:54;1.45;;;0.60;;
26113;SDS011;13966;48.828;9.064;2022-09-13T16:34:23;1.38;;;0.60;;
26113;SDS011;13966;48.828;9.064;2022-09-13T16:36:50;3.08;;;0.80;;
26113;SDS011;13966;48.828;9.064;2022-09-13T16:39:16;4.95;;;0.85;;
26113;SDS011;13966;48.828;9.064;2022-09-13T16:41:42;1.77;;;0.93;;
26113;SDS011;13966;48.828;9.064;2022-09-13T16:44:08;2.72;;;0.80;;
26113;SDS011;13966;48.828;9.064;2022-09-13T16:46:34;1.80;;;0.80;;
26113;SDS011;13966;48.828;9.064;2022-09-13T16:49:01;1.70;;;0.77;;
26113;SDS011;13966;48.828;9.064;2022-09-13T16:51:27;2.83;;;1.10;;
26113;SDS011;13966;48.828;9.064;2022-09-13T16:53:53;1.75;;;1.00;;
26113;SDS011;13966;48.828;9.064;2022-09-13T16:56:21;2.63;;;1.20;;
26113;SDS011;13966;48.828;9.064;2022-09-13T16:58:47;3.55;;;2.22;;
26113;SDS011;13966;48.828;9.064;2022-09-13T17:01:18;7.32;;;2.75;;
26113;SDS011;13966;48.828;9.064;2022-09-13T17:03:45;6.45;;;1.95;;
26113;SDS011;13966;48.828;9.064;2022-09-13T17:06:12;3.50;;;2.35;;
26113;SDS011;13966;48.828;9.064;2022-09-13T17:08:39;8.82;;;4.25;;
26113;SDS011;13966;48.828;9.064;2022-09-13T17:11:06;5.97;;;4.18;;
26113;SDS011;13966;48.828;9.064;2022-09-13T17:13:33;8.10;;;3.63;;
26113;SDS011;13966;48.828;9.064;2022-09-13T17:15:59;10.10;;;2.80;;
26113;SDS011;13966;48.828;9.064;2022-09-13T17:18:25;4.45;;;2.20;;
26113;SDS011;13966;48.828;9.064;2022-09-13T17:20:51;5.72;;;2.08;;
26113;SDS011;13966;48.828;9.064;2022-09-13T17:23:17;10.05;;;3.33;;
26113;SDS011;13966;48.828;9.064;2022-09-13T17:25:45;5.93;;;2.53;;
26113;SDS011;13966;48.828;9.064;2022-09-13T17:28:15;23.77;;;6.50;;
26113;SDS011;13966;48.828;9.064;2022-09-13T17:30:42;17.90;;;4.05;;
26113;SDS011;13966;48.828;9.064;2022-09-13T17:33:09;10.18;;;2.97;;
26113;SDS011;13966;48.828;9.064;2022-09-13T17:35:35;7.63;;;2.65;;
26113;SDS011;13966;48.828;9.064;2022-09-13T17:38:02;6.97;;;2.55;;
26113;SDS011;13966;48.828;9.064;2022-09-13T17:40:28;6.70;;;2.95;;
26113;SDS011;13966;48.828;9.064;2022-09-13T17:42:55;4.28;;;2.33;;
26113;SDS011;13966;48.828;9.064;2022-09-13T17:45:21;5.78;;;2.55;;
26113;SDS011;13966;48.828;9.064;2022-09-13T17:47:50;4.35;;;1.85;;
26113;SDS011;13966;48.828;9.064;2022-09-13T17:50:16;10.90;;;3.45;;
26113;SDS011;13966;48.828;9.064;2022-09-13T17:52:42;9.05;;;2.50;;